Time;durP1;ratioP1;P1;durP2;ratioP2;P2;SDS_P1;SDS_P2;PMS_P1;PMS_P2;Temp;Humidity;BMP_temperature;BMP_pressure;BME280_temperature;BME280_humidity;BME280_pressure;Samples;Min_cycle;Max_cycle;Signal;HPM_P1;HPM_P2
2024/04/21 00:00:38;;;;;;;2.47;1.63;;;19.10;55.00;;;;;;5261473;26;20003;-71
2024/04/21 00:03:04;;;;;;;1.92;1.67;;;19.10;54.90;;;;;;5264372;26;20321;-70
2024/04/21 00:05:30;;;;;;;3.42;2.13;;;19.10;54.90;;;;;;5263729;26;20017;-69
2024/04/21 00:07:55;;;;;;;4.03;1.67;;;19.20;55.00;;;;;;5263347;26;20017;-72
2024/04/21 00:10:21;;;;;;;2.90;1.90;;;19.10;54.90;;;;;;5270178;26;20006;-69
2024/04/21 00:12:46;;;;;;;2.55;2.05;;;19.10;54.90;;;;;;5255122;26;20064;-71
2024/04/21 00:15:11;;;;;;;2.00;1.80;;;19.10;54.90;;;;;;5260547;26;20002;-70
2024/04/21 00:17:37;;;;;;;3.08;1.80;;;19.10;54.90;;;;;;5259711;26;20107;-70
2024/04/21 00:20:03;;;;;;;3.20;1.75;;;19.10;54.90;;;;;;5262210;26;20010;-70
2024/04/21 00:22:28;;;;;;;1.70;1.30;;;19.10;54.90;;;;;;5259183;26;20013;-70
2024/04/21 00:24:53;;;;;;;2.05;1.60;;;19.20;55.00;;;;;;5263459;26;20013;-72
2024/04/21 00:27:19;;;;;;;2.17;1.38;;;19.10;54.90;;;;;;5258780;26;20018;-70
2024/04/21 00:29:44;;;;;;;2.75;1.65;;;19.20;54.90;;;;;;5262666;26;20006;-69
2024/04/21 00:32:11;;;;;;;2.10;1.50;;;19.20;55.00;;;;;;5264561;26;20017;-69
2024/04/21 00:34:36;;;;;;;2.72;1.70;;;19.10;54.90;;;;;;5258864;26;20555;-68
2024/04/21 00:37:02;;;;;;;1.77;1.60;;;19.10;54.90;;;;;;5263516;26;20021;-70
2024/04/21 00:39:28;;;;;;;1.92;1.55;;;19.20;55.00;;;;;;5245677;26;20006;-70
2024/04/21 00:41:53;;;;;;;2.30;1.60;;;19.10;54.80;;;;;;5247541;26;20508;-71
2024/04/21 00:44:18;;;;;;;1.73;1.40;;;19.10;54.90;;;;;;5255367;26;20088;-70
2024/04/21 00:46:44;;;;;;;2.22;1.50;;;19.10;54.90;;;;;;5260596;26;20026;-71
2024/04/21 00:49:11;;;;;;;2.15;1.30;;;19.10;54.80;;;;;;5262694;26;20310;-69
2024/04/21 00:51:37;;;;;;;1.73;1.38;;;19.10;54.90;;;;;;5262646;26;20539;-70
2024/04/21 00:54:03;;;;;;;2.22;1.40;;;19.10;54.80;;;;;;5255060;26;20010;-70
2024/04/21 00:56:30;;;;;;;1.52;1.00;;;19.20;54.90;;;;;;5258386;26;20025;-70
2024/04/21 00:58:55;;;;;;;1.73;1.35;;;19.10;54.80;;;;;;5248493;26;20323;-71
2024/04/21 01:01:21;;;;;;;2.17;1.40;;;19.10;54.80;;;;;;5250178;26;20547;-69
2024/04/21 01:03:46;;;;;;;1.30;1.17;;;19.10;54.80;;;;;;5255861;26;20365;-70
2024/04/21 01:06:12;;;;;;;1.13;1.02;;;19.10;54.90;;;;;;5255972;26;20089;-69
2024/04/21 01:08:37;;;;;;;1.88;1.40;;;19.10;55.00;;;;;;5252728;26;20006;-70
2024/04/21 01:11:03;;;;;;;2.00;1.10;;;19.00;55.00;;;;;;5252786;26;20030;-69
2024/04/21 01:13:29;;;;;;;1.67;1.20;;;19.00;55.20;;;;;;5246429;26;20482;-71
2024/04/21 01:15:54;;;;;;;1.92;1.40;;;19.00;55.30;;;;;;5262514;26;20472;-70
2024/04/21 01:18:20;;;;;;;2.13;1.33;;;19.00;55.40;;;;;;5261166;26;20017;-70
2024/04/21 01:20:46;;;;;;;1.50;1.35;;;18.90;55.50;;;;;;5263270;26;20014;-70
2024/04/21 01:23:18;;;;;;;1.25;1.08;;;18.90;55.60;;;;;;5262623;26;20501;-70
2024/04/21 01:25:47;;;;;;;1.73;1.20;;;18.80;55.60;;;;;;5260288;26;20047;-70
2024/04/21 01:28:13;;;;;;;2.17;1.40;;;18.80;55.80;;;;;;5278798;26;20005;-69
2024/04/21 01:30:38;;;;;;;1.83;1.30;;;18.80;55.70;;;;;;5260201;26;20017;-70
2024/04/21 01:33:04;;;;;;;1.73;1.30;;;18.70;55.70;;;;;;5245185;26;19999;-70
2024/04/21 01:35:30;;;;;;;2.03;1.60;;;18.70;55.80;;;;;;5255913;26;20390;-70
2024/04/21 01:37:55;;;;;;;1.40;1.10;;;18.70;55.80;;;;;;5254077;26;20017;-70
2024/04/21 01:40:21;;;;;;;1.30;1.05;;;18.70;55.80;;;;;;5248400;26;20030;-69
2024/04/21 01:42:46;;;;;;;1.55;1.38;;;18.70;55.90;;;;;;5263944;26;20007;-70
2024/04/21 01:45:12;;;;;;;1.30;1.00;;;18.70;55.90;;;;;;5260902;26;20010;-69
2024/04/21 01:47:38;;;;;;;1.38;1.15;;;18.70;55.90;;;;;;5260895;26;20029;-71
2024/04/21 01:50:05;;;;;;;1.30;1.00;;;18.70;55.80;;;;;;5252421;26;20016;-71
2024/04/21 01:52:30;;;;;;;2.60;1.23;;;18.70;55.60;;;;;;5271214;26;20342;-71
2024/04/21 01:54:56;;;;;;;1.10;1.00;;;18.70;55.50;;;;;;5259942;26;20394;-71
2024/04/21 01:57:21;;;;;;;2.00;0.80;;;18.80;55.40;;;;;;5262282;26;20422;-70
2024/04/21 01:59:47;;;;;;;1.30;0.90;;;18.80;55.20;;;;;;5275174;26;19998;-71
2024/04/21 02:02:12;;;;;;;1.67;1.00;;;18.90;55.10;;;;;;5260819;26;20088;-71
2024/04/21 02:04:38;;;;;;;1.50;0.98;;;18.90;55.00;;;;;;5260513;26;20022;-68
2024/04/21 02:07:05;;;;;;;2.28;1.20;;;18.90;55.00;;;;;;5265998;26;20029;-71
2024/04/21 02:09:31;;;;;;;1.60;1.17;;;19.00;54.90;;;;;;5256320;26;20039;-70
2024/04/21 02:11:56;;;;;;;1.10;1.00;;;19.00;54.90;;;;;;5261038;26;20514;-70
2024/04/21 02:14:22;;;;;;;1.10;1.00;;;19.00;54.90;;;;;;5266450;26;20077;-69
2024/04/21 02:16:47;;;;;;;1.02;0.85;;;19.00;54.80;;;;;;5254239;26;20572;-70
2024/04/21 02:19:13;;;;;;;2.45;1.23;;;19.00;54.80;;;;;;5267960;26;20006;-70
2024/04/21 02:21:38;;;;;;;1.05;0.95;;;19.00;54.80;;;;;;5260967;26;19999;-70
2024/04/21 02:24:04;;;;;;;1.25;0.85;;;19.00;54.70;;;;;;5252678;26;20015;-70
2024/04/21 02:26:29;;;;;;;2.88;1.08;;;19.10;54.80;;;;;;5252107;26;20014;-68
2024/04/21 02:28:55;;;;;;;1.20;1.10;;;19.00;54.70;;;;;;5268100;26;20587;-70
2024/04/21 02:31:20;;;;;;;1.63;1.13;;;19.10;54.80;;;;;;5265929;26;20003;-70
2024/04/21 02:33:46;;;;;;;1.23;1.05;;;19.10;54.80;;;;;;5266301;26;20238;-70
2024/04/21 02:36:11;;;;;;;0.98;0.82;;;19.10;54.80;;;;;;5264825;26;20020;-69
2024/04/21 02:38:37;;;;;;;1.35;1.00;;;19.10;54.80;;;;;;5247802;26;20386;-71
2024/04/21 02:41:03;;;;;;;0.93;0.82;;;19.10;54.80;;;;;;5263733;26;20002;-69
2024/04/21 02:43:29;;;;;;;1.73;1.17;;;19.10;54.80;;;;;;5262187;26;20013;-70
2024/04/21 02:45:54;;;;;;;0.70;0.70;;;19.10;54.80;;;;;;5263585;26;20349;-70
2024/04/21 02:48:29;;;;;;;0.70;0.70;;;19.10;54.80;;;;;;5262645;26;20003;-70
2024/04/21 02:50:55;;;;;;;1.13;0.90;;;19.10;54.80;;;;;;5254382;26;20015;-69
2024/04/21 02:53:21;;;;;;;1.08;0.90;;;19.10;54.80;;;;;;5228810;26;20003;-65
2024/04/21 02:55:47;;;;;;;0.70;0.63;;;19.10;54.80;;;;;;5258415;26;20014;-70
2024/04/21 02:58:13;;;;;;;1.40;0.95;;;19.10;54.80;;;;;;5263407;26;20100;-70
2024/04/21 03:00:39;;;;;;;1.00;0.90;;;19.10;54.80;;;;;;5256447;26;20070;-70
2024/04/21 03:03:06;;;;;;;0.90;0.70;;;19.10;54.80;;;;;;5259163;26;20009;-69
2024/04/21 03:05:32;;;;;;;1.10;0.80;;;19.10;54.80;;;;;;5263021;26;20002;-70
2024/04/21 03:07:57;;;;;;;0.90;0.70;;;19.10;54.80;;;;;;5263160;26;20006;-69
2024/04/21 03:10:23;;;;;;;0.90;0.82;;;19.10;54.80;;;;;;5259273;26;20021;-70
2024/04/21 03:12:49;;;;;;;1.20;1.02;;;19.10;54.70;;;;;;5234244;26;20474;-70
2024/04/21 03:15:14;;;;;;;2.33;1.08;;;19.10;54.80;;;;;;5260943;26;20016;-69
2024/04/21 03:17:40;;;;;;;0.75;0.70;;;19.10;54.70;;;;;;5260798;26;20071;-70
2024/04/21 03:20:06;;;;;;;0.68;0.63;;;19.10;54.60;;;;;;5265348;26;20008;-67
2024/04/21 03:22:32;;;;;;;1.02;0.82;;;19.10;54.60;;;;;;5263048;26;20089;-70
2024/04/21 03:24:57;;;;;;;1.45;0.90;;;19.10;54.70;;;;;;5259319;26;20323;-70
2024/04/21 03:27:23;;;;;;;0.80;0.80;;;19.10;54.70;;;;;;5263617;26;20002;-70
2024/04/21 03:29:48;;;;;;;1.05;0.93;;;19.10;54.70;;;;;;5264698;26;20006;-71
2024/04/21 03:32:15;;;;;;;1.02;0.70;;;19.10;54.60;;;;;;5259411;26;20367;-70
2024/04/21 03:34:40;;;;;;;0.80;0.80;;;19.20;54.60;;;;;;5261590;26;20007;-69
2024/04/21 03:37:06;;;;;;;0.80;0.68;;;19.20;54.70;;;;;;5263118;26;20006;-69
2024/04/21 03:39:31;;;;;;;0.95;0.80;;;19.20;54.60;;;;;;5246124;26;20010;-70
2024/04/21 03:41:57;;;;;;;0.70;0.70;;;19.20;54.60;;;;;;5263174;26;20461;-68
2024/04/21 03:44:23;;;;;;;0.80;0.60;;;19.20;54.60;;;;;;5264441;26;20010;-70
2024/04/21 03:46:48;;;;;;;0.85;0.80;;;19.20;54.60;;;;;;5262382;26;20009;-70
2024/04/21 03:49:14;;;;;;;0.95;0.70;;;19.20;54.60;;;;;;5257330;26;20441;-70
2024/04/21 03:51:39;;;;;;;1.13;0.80;;;19.20;54.50;;;;;;5262213;26;20007;-69
2024/04/21 03:54:04;;;;;;;0.80;0.80;;;19.20;54.50;;;;;;5259027;26;20006;-71
2024/04/21 03:56:30;;;;;;;1.00;0.77;;;19.30;54.60;;;;;;5261944;26;20006;-70
2024/04/21 03:58:56;;;;;;;0.90;0.63;;;19.20;54.40;;;;;;5258475;26;20362;-70
2024/04/21 04:01:22;;;;;;;1.05;0.80;;;19.30;54.40;;;;;;5261006;26;20075;-69
2024/04/21 04:03:47;;;;;;;0.82;0.77;;;19.30;54.40;;;;;;5264578;26;20050;-70
2024/04/21 04:06:13;;;;;;;0.75;0.75;;;19.30;55.00;;;;;;5252518;26;20125;-70
2024/04/21 04:08:38;;;;;;;0.80;0.80;;;19.30;54.30;;;;;;5259007;26;20989;-69
2024/04/21 04:11:04;;;;;;;0.88;0.80;;;19.30;54.40;;;;;;5257306;26;20014;-69
2024/04/21 04:13:29;;;;;;;0.80;0.80;;;19.30;54.30;;;;;;5260892;26;20086;-71
2024/04/21 04:15:55;;;;;;;0.98;0.88;;;19.40;54.30;;;;;;5259148;26;20125;-70
2024/04/21 04:18:20;;;;;;;0.80;0.63;;;19.30;54.20;;;;;;5262840;26;20021;-72
2024/04/21 04:20:46;;;;;;;0.80;0.70;;;19.40;54.30;;;;;;5262469;26;20076;-70
2024/04/21 04:23:12;;;;;;;1.15;0.80;;;19.40;54.20;;;;;;5263701;26;20069;-69
2024/04/21 04:25:37;;;;;;;0.90;0.75;;;19.40;54.20;;;;;;5261170;26;20449;-69
2024/04/21 04:28:03;;;;;;;3.10;0.65;;;19.40;54.20;;;;;;5263429;26;20003;-69
2024/04/21 04:30:28;;;;;;;2.58;0.80;;;19.40;54.10;;;;;;5261047;26;20006;-70
2024/04/21 04:32:54;;;;;;;0.60;0.60;;;19.40;54.20;;;;;;5252960;26;20026;-69
2024/04/21 04:35:20;;;;;;;0.75;0.60;;;19.40;54.20;;;;;;5261327;26;20025;-70
2024/04/21 04:37:45;;;;;;;0.55;0.55;;;19.40;54.20;;;;;;5260437;26;20010;-69
2024/04/21 04:40:11;;;;;;;0.77;0.65;;;19.40;54.20;;;;;;5257806;26;20401;-69
2024/04/21 04:42:37;;;;;;;0.80;0.70;;;19.40;54.20;;;;;;5264720;26;20093;-70
2024/04/21 04:45:02;;;;;;;1.20;0.90;;;19.40;54.30;;;;;;5262053;26;20038;-69
2024/04/21 04:47:28;;;;;;;0.93;0.80;;;19.40;54.40;;;;;;5264259;26;20021;-69
2024/04/21 04:49:54;;;;;;;1.45;0.70;;;19.40;54.30;;;;;;5262502;26;20010;-70
2024/04/21 04:52:20;;;;;;;0.85;0.60;;;19.30;54.30;;;;;;5263940;26;20009;-70
2024/04/21 04:54:45;;;;;;;1.13;0.82;;;19.40;54.30;;;;;;5261558;26;20287;-70
2024/04/21 04:57:11;;;;;;;0.65;0.65;;;19.40;54.30;;;;;;5263550;26;20007;-70
2024/04/21 04:59:36;;;;;;;0.47;0.40;;;19.40;54.30;;;;;;5261796;26;20025;-69
2024/04/21 05:02:01;;;;;;;0.70;0.70;;;19.40;54.30;;;;;;5260883;26;20035;-69
2024/04/21 05:04:27;;;;;;;1.00;0.70;;;19.40;54.30;;;;;;5263283;26;20350;-69
2024/04/21 05:06:52;;;;;;;0.70;0.70;;;19.40;54.30;;;;;;5259172;26;19999;-70
2024/04/21 05:09:18;;;;;;;0.80;0.68;;;19.40;54.20;;;;;;5263878;26;20338;-69
2024/04/21 05:11:43;;;;;;;1.02;0.75;;;19.30;54.30;;;;;;5261869;26;20030;-69
2024/04/21 05:14:09;;;;;;;0.90;0.73;;;19.40;54.40;;;;;;5266103;26;20002;-70
2024/04/21 05:16:34;;;;;;;0.93;0.50;;;19.40;54.40;;;;;;5260026;26;20025;-70
2024/04/21 05:19:00;;;;;;;1.00;0.68;;;19.40;54.40;;;;;;5235761;26;20007;-67
2024/04/21 05:21:25;;;;;;;0.80;0.80;;;19.30;54.40;;;;;;5265983;26;20003;-70
2024/04/21 05:23:51;;;;;;;0.60;0.60;;;19.30;54.50;;;;;;5259344;26;20018;-68
2024/04/21 05:26:16;;;;;;;0.77;0.75;;;19.30;54.50;;;;;;5257398;26;20010;-70
2024/04/21 05:28:42;;;;;;;0.45;0.43;;;19.30;54.50;;;;;;5263529;26;20477;-69
2024/04/21 05:31:07;;;;;;;0.43;0.43;;;19.30;54.60;;;;;;5261536;26;20006;-69
2024/04/21 05:33:33;;;;;;;1.70;0.90;;;19.30;54.60;;;;;;5262571;26;20089;-69
2024/04/21 05:35:58;;;;;;;0.68;0.60;;;19.30;54.60;;;;;;5264419;26;20002;-69
2024/04/21 05:38:24;;;;;;;0.77;0.50;;;19.30;54.60;;;;;;5255697;26;20003;-70
2024/04/21 05:40:49;;;;;;;0.60;0.60;;;19.30;54.60;;;;;;5263203;26;19998;-70
2024/04/21 05:43:15;;;;;;;1.65;0.90;;;19.20;54.60;;;;;;5263342;26;20003;-70
2024/04/21 05:45:41;;;;;;;1.20;0.60;;;19.30;54.70;;;;;;5261041;26;20380;-69
2024/04/21 05:48:06;;;;;;;0.77;0.70;;;19.20;54.60;;;;;;5263951;26;20354;-69
2024/04/21 05:50:32;;;;;;;0.60;0.57;;;19.20;54.70;;;;;;5262432;26;20461;-70
2024/04/21 05:52:57;;;;;;;1.08;0.52;;;19.20;54.70;;;;;;5257371;26;20014;-69
2024/04/21 05:55:23;;;;;;;1.20;0.70;;;19.20;54.80;;;;;;5256871;26;20010;-70
2024/04/21 05:57:48;;;;;;;1.02;0.68;;;19.20;54.70;;;;;;5263203;26;20006;-68
2024/04/21 06:00:15;;;;;;;0.70;0.57;;;19.20;54.70;;;;;;5263748;26;20011;-68
2024/04/21 06:02:40;;;;;;;0.80;0.50;;;19.20;54.80;;;;;;5260288;26;20490;-68
2024/04/21 06:05:06;;;;;;;1.02;0.70;;;19.20;54.70;;;;;;5263341;26;20046;-68
2024/04/21 06:07:31;;;;;;;1.50;0.90;;;19.20;54.80;;;;;;5262164;26;20377;-70
2024/04/21 06:09:58;;;;;;;0.50;0.50;;;19.20;54.80;;;;;;5262148;26;20006;-69
2024/04/21 06:12:24;;;;;;;0.40;0.40;;;19.20;54.80;;;;;;5263164;26;20010;-70
2024/04/21 06:14:49;;;;;;;0.85;0.68;;;19.20;54.80;;;;;;5263265;26;20026;-71
2024/04/21 06:17:15;;;;;;;0.68;0.68;;;19.10;54.80;;;;;;5264108;26;20018;-69
2024/04/21 06:19:40;;;;;;;0.90;0.57;;;19.10;54.80;;;;;;5261273;26;20053;-70
2024/04/21 06:22:06;;;;;;;0.57;0.50;;;19.10;54.80;;;;;;5255212;26;20031;-69
2024/04/21 06:24:31;;;;;;;0.70;0.70;;;19.10;54.80;;;;;;5260214;26;20431;-70
2024/04/21 06:26:57;;;;;;;1.02;0.65;;;19.10;54.80;;;;;;5262888;26;20076;-70
2024/04/21 06:29:22;;;;;;;0.70;0.60;;;19.20;54.80;;;;;;5263124;26;19999;-69
2024/04/21 06:31:48;;;;;;;0.80;0.50;;;19.20;54.80;;;;;;5262722;26;20379;-71
2024/04/21 06:34:13;;;;;;;0.60;0.57;;;19.10;54.80;;;;;;5260433;26;20395;-70
2024/04/21 06:36:39;;;;;;;0.70;0.60;;;19.10;54.80;;;;;;5250366;26;20002;-70
2024/04/21 06:39:04;;;;;;;0.70;0.70;;;19.20;54.80;;;;;;5254512;26;20342;-70
2024/04/21 06:41:30;;;;;;;1.23;0.40;;;19.20;54.80;;;;;;5254878;26;20002;-69
2024/04/21 06:43:55;;;;;;;0.60;0.60;;;19.10;54.80;;;;;;5245571;26;20361;-70
2024/04/21 06:46:21;;;;;;;0.93;0.63;;;19.10;54.80;;;;;;5237443;26;20039;-70
2024/04/21 06:48:46;;;;;;;0.60;0.50;;;19.10;54.80;;;;;;5251876;26;20035;-70
2024/04/21 06:51:12;;;;;;;0.90;0.45;;;19.10;54.80;;;;;;5242082;26;19998;-68
2024/04/21 06:53:37;;;;;;;0.65;0.55;;;19.10;54.80;;;;;;5269917;26;20423;-69
2024/04/21 06:56:03;;;;;;;0.50;0.50;;;19.10;54.80;;;;;;5258898;26;20003;-70
2024/04/21 06:58:29;;;;;;;0.70;0.60;;;19.20;54.80;;;;;;5253004;26;20436;-72
2024/04/21 07:00:54;;;;;;;0.60;0.60;;;19.10;54.80;;;;;;5268013;26;20009;-69
2024/04/21 07:03:20;;;;;;;0.70;0.70;;;19.10;54.80;;;;;;5261757;26;20470;-71
2024/04/21 07:05:46;;;;;;;1.42;0.60;;;19.20;54.80;;;;;;5251459;26;20047;-69
2024/04/21 07:08:11;;;;;;;0.80;0.70;;;19.20;54.70;;;;;;5265347;26;20458;-70
2024/04/21 07:10:37;;;;;;;1.92;0.50;;;19.20;54.70;;;;;;5257502;26;20006;-69
2024/04/21 07:13:03;;;;;;;2.47;0.60;;;19.20;54.70;;;;;;5263343;26;20260;-67
2024/04/21 07:15:28;;;;;;;1.02;0.75;;;19.20;54.80;;;;;;5264708;26;20074;-68
2024/04/21 07:17:54;;;;;;;1.30;0.73;;;19.20;54.80;;;;;;5267283;26;20013;-69
2024/04/21 07:20:21;;;;;;;0.65;0.60;;;19.10;54.70;;;;;;5261962;26;20465;-69
2024/04/21 07:22:47;;;;;;;1.52;0.63;;;19.10;54.80;;;;;;5265705;26;20015;-67
2024/04/21 07:25:14;;;;;;;1.23;0.85;;;19.10;54.80;;;;;;5263778;26;20084;-67
2024/04/21 07:27:40;;;;;;;1.73;1.10;;;19.20;54.80;;;;;;5265067;26;20109;-70
2024/04/21 07:30:07;;;;;;;2.25;0.85;;;19.20;54.80;;;;;;5267404;26;20013;-68
2024/04/21 07:32:32;;;;;;;1.77;1.02;;;19.20;54.80;;;;;;5265421;26;20007;-69
2024/04/21 07:34:58;;;;;;;1.67;1.05;;;19.10;54.70;;;;;;5264746;26;20014;-70
2024/04/21 07:37:23;;;;;;;1.83;0.98;;;19.20;54.80;;;;;;5259170;26;20076;-68
2024/04/21 07:39:49;;;;;;;1.50;1.10;;;19.20;54.70;;;;;;5261162;26;20475;-70
2024/04/21 07:42:14;;;;;;;1.35;1.05;;;19.20;54.60;;;;;;5267453;26;20018;-67
2024/04/21 07:44:40;;;;;;;4.35;1.20;;;19.20;54.60;;;;;;5265048;26;20020;-68
2024/04/21 07:47:06;;;;;;;1.55;1.10;;;19.20;54.60;;;;;;5266883;26;20349;-67
2024/04/21 07:49:31;;;;;;;1.48;1.02;;;19.20;54.60;;;;;;5263635;26;20047;-68
2024/04/21 07:51:56;;;;;;;1.45;1.17;;;19.20;54.60;;;;;;5267412;26;20474;-67
2024/04/21 07:54:23;;;;;;;1.98;0.82;;;19.20;54.60;;;;;;5263958;26;20006;-69
2024/04/21 07:56:48;;;;;;;3.50;1.20;;;19.20;54.60;;;;;;5251580;26;20054;-67
2024/04/21 07:59:14;;;;;;;2.15;0.90;;;19.20;54.60;;;;;;5253652;26;20014;-68
2024/04/21 08:01:39;;;;;;;1.77;1.10;;;19.20;54.60;;;;;;5260438;26;20349;-68
2024/04/21 08:04:05;;;;;;;1.77;1.15;;;19.20;54.60;;;;;;5259470;26;20705;-69
2024/04/21 08:06:30;;;;;;;2.53;1.23;;;19.20;54.70;;;;;;5257362;26;20445;-68
2024/04/21 08:08:56;;;;;;;4.78;1.40;;;19.20;54.70;;;;;;5238961;26;20003;-70
2024/04/21 08:11:23;;;;;;;2.10;1.63;;;19.20;54.70;;;;;;5250061;26;20017;-69
2024/04/21 08:13:49;;;;;;;2.97;2.35;;;19.20;54.80;;;;;;5255767;26;20003;-66
2024/04/21 08:16:14;;;;;;;4.57;2.85;;;19.20;54.80;;;;;;5251831;26;20046;-69
2024/04/21 08:18:40;;;;;;;4.63;2.80;;;19.20;54.80;;;;;;5247799;26;20006;-68
2024/04/21 08:21:05;;;;;;;5.63;3.50;;;19.20;54.90;;;;;;5250186;26;20006;-70
2024/04/21 08:23:31;;;;;;;7.68;4.80;;;19.20;55.50;;;;;;5246714;26;20018;-70
2024/04/21 08:25:59;;;;;;;6.97;4.10;;;19.10;54.90;;;;;;5256602;26;20479;-69
2024/04/21 08:28:25;;;;;;;7.07;4.55;;;19.10;55.00;;;;;;5243134;26;20473;-70
2024/04/21 08:30:51;;;;;;;10.55;5.18;;;19.10;55.00;;;;;;5233838;26;19999;-69
2024/04/21 08:33:16;;;;;;;7.35;4.15;;;19.00;55.00;;;;;;5243424;26;20018;-69
2024/04/21 08:35:50;;;;;;;11.85;5.55;;;19.00;55.20;;;;;;5249145;26;20076;-69
2024/04/21 08:38:15;;;;;;;9.57;5.30;;;19.00;55.20;;;;;;5249300;26;20320;-69
2024/04/21 08:40:41;;;;;;;11.45;5.85;;;19.00;55.30;;;;;;5242553;26;20335;-69
2024/04/21 08:43:09;;;;;;;8.13;5.30;;;19.00;55.30;;;;;;5249350;26;20006;-68
2024/04/21 08:45:36;;;;;;;10.43;5.55;;;18.90;55.30;;;;;;5245000;26;20522;-68
2024/04/21 08:48:01;;;;;;;10.18;5.47;;;18.90;55.40;;;;;;5250019;26;20030;-70
2024/04/21 08:50:28;;;;;;;10.63;5.97;;;18.90;55.40;;;;;;5246043;26;20014;-71
2024/04/21 08:52:54;;;;;;;9.82;5.82;;;18.80;55.40;;;;;;5249700;26;20009;-68
2024/04/21 08:55:21;;;;;;;11.25;6.15;;;18.80;55.50;;;;;;5249113;26;20003;-71
2024/04/21 08:57:47;;;;;;;13.82;5.95;;;18.80;55.60;;;;;;5245550;26;20030;-69
2024/04/21 09:00:16;;;;;;;8.95;5.82;;;18.80;55.60;;;;;;5240014;26;20003;-68
2024/04/21 09:02:42;;;;;;;10.55;5.20;;;18.80;55.60;;;;;;5258623;26;20010;-70
2024/04/21 09:05:10;;;;;;;9.68;6.03;;;18.80;55.60;;;;;;5243563;26;20049;-70
2024/04/21 09:07:38;;;;;;;9.90;6.18;;;18.80;55.60;;;;;;5251574;26;20030;-69
2024/04/21 09:10:04;;;;;;;9.00;4.70;;;18.80;55.50;;;;;;5241908;26;20342;-69
2024/04/21 09:12:31;;;;;;;10.65;4.95;;;18.80;55.60;;;;;;5258674;26;20047;-68
2024/04/21 09:14:56;;;;;;;10.65;5.40;;;18.80;55.60;;;;;;5232538;26;20010;-70
2024/04/21 09:17:23;;;;;;;11.02;5.32;;;18.80;55.50;;;;;;5252293;26;20006;-70
2024/04/21 09:19:49;;;;;;;6.82;5.00;;;18.80;55.40;;;;;;5253561;26;20821;-69
2024/04/21 09:22:14;;;;;;;9.82;5.63;;;18.90;55.40;;;;;;5240005;26;20002;-69
2024/04/21 09:24:40;;;;;;;9.32;5.30;;;18.90;55.30;;;;;;5256188;26;20013;-68
2024/04/21 09:27:05;;;;;;;6.93;5.00;;;18.90;55.20;;;;;;5246762;26;20010;-68
2024/04/21 09:29:31;;;;;;;11.63;5.15;;;18.90;55.10;;;;;;5250900;26;20014;-69
2024/04/21 09:31:56;;;;;;;8.18;4.82;;;19.00;55.00;;;;;;5236647;26;20122;-69
2024/04/21 09:34:22;;;;;;;9.45;5.18;;;19.00;55.00;;;;;;5251366;26;20083;-69
2024/04/21 09:36:48;;;;;;;6.93;4.53;;;19.00;54.90;;;;;;5236001;26;20013;-70
2024/04/21 09:39:15;;;;;;;11.38;4.60;;;19.10;54.90;;;;;;5247090;26;20126;-69
2024/04/21 09:41:44;;;;;;;7.65;4.50;;;19.10;54.80;;;;;;5235520;26;20014;-69
2024/04/21 09:44:10;;;;;;;9.57;5.28;;;19.10;54.80;;;;;;5251581;26;20007;-71
2024/04/21 09:46:37;;;;;;;8.57;5.50;;;19.10;54.80;;;;;;5239691;26;20014;-69
2024/04/21 09:49:03;;;;;;;6.70;4.30;;;19.10;54.90;;;;;;5240721;26;20396;-70
2024/04/21 09:51:31;;;;;;;5.95;4.68;;;19.10;54.90;;;;;;5250042;26;20085;-70
2024/04/21 09:53:57;;;;;;;8.02;4.43;;;19.00;54.90;;;;;;5278952;26;20401;-69
2024/04/21 09:56:32;;;;;;;8.20;4.40;;;19.00;55.00;;;;;;5254169;26;19999;-69
2024/04/21 09:59:00;;;;;;;8.82;4.32;;;19.00;55.00;;;;;;5250161;26;20507;-69
2024/04/21 10:01:32;;;;;;;10.73;4.47;;;19.10;54.90;;;;;;5239839;26;20095;-69
2024/04/21 10:04:07;;;;;;;10.05;4.60;;;19.30;55.00;;;;;;5238760;26;20022;-68
2024/04/21 10:06:33;;;;;;;13.73;4.80;;;19.30;54.70;;;;;;5239893;26;20014;-68
2024/04/21 10:09:05;;;;;;;9.85;4.78;;;19.30;54.70;;;;;;5245112;26;20027;-69
2024/04/21 10:11:31;;;;;;;9.65;4.55;;;19.20;54.80;;;;;;5252332;26;20313;-69
2024/04/21 10:13:59;;;;;;;7.82;4.88;;;19.20;54.80;;;;;;5233357;26;19999;-70
2024/04/21 10:16:26;;;;;;;8.02;4.05;;;19.10;54.90;;;;;;5233604;26;20000;-69
2024/04/21 10:19:05;;;;;;;7.60;4.18;;;19.10;55.00;;;;;;5240865;26;20042;-70
2024/04/21 10:21:31;;;;;;;7.63;4.78;;;19.10;55.00;;;;;;5244798;27;20013;-69
2024/04/21 10:23:56;;;;;;;8.25;4.10;;;19.10;55.00;;;;;;5238939;27;20462;-70
2024/04/21 10:26:22;;;;;;;6.45;3.63;;;19.10;55.00;;;;;;5259087;26;20444;-72
2024/04/21 10:28:47;;;;;;;11.18;4.70;;;19.10;55.00;;;;;;5250240;26;21241;-69
2024/04/21 10:31:13;;;;;;;8.25;3.85;;;19.10;55.10;;;;;;5249705;26;20039;-69
2024/04/21 10:33:40;;;;;;;11.60;4.00;;;19.10;55.10;;;;;;5247942;27;20014;-67
2024/04/21 10:36:18;;;;;;;7.22;4.28;;;19.10;55.00;;;;;;5237090;26;20014;-68
2024/04/21 10:38:53;;;;;;;4.40;3.72;;;19.10;55.10;;;;;;5249525;26;20010;-68
2024/04/21 10:41:22;;;;;;;7.03;4.15;;;19.10;55.00;;;;;;5243919;26;20005;-67
2024/04/21 10:43:48;;;;;;;7.68;3.78;;;19.10;55.00;;;;;;5245064;26;21408;-68
2024/04/21 10:46:13;;;;;;;6.00;3.67;;;19.10;55.00;;;;;;5233286;26;20017;-67
2024/04/21 10:48:39;;;;;;;8.05;4.15;;;19.10;55.00;;;;;;5261353;26;20013;-67
2024/04/21 10:51:05;;;;;;;6.07;3.58;;;19.10;55.00;;;;;;5245879;26;19999;-67
2024/04/21 10:53:30;;;;;;;9.05;4.57;;;19.10;54.90;;;;;;5242860;26;20439;-68
2024/04/21 10:55:56;;;;;;;5.13;3.30;;;19.10;54.90;;;;;;5236966;26;20495;-68
2024/04/21 10:58:22;;;;;;;4.53;2.90;;;19.10;54.90;;;;;;5249613;26;20086;-67
2024/04/21 11:00:47;;;;;;;6.20;3.30;;;19.20;54.90;;;;;;5233068;26;20050;-69
2024/04/21 11:03:14;;;;;;;4.93;3.40;;;19.20;54.90;;;;;;5247503;26;20010;-67
2024/04/21 11:06:00;;;;;;;5.55;3.65;;;19.20;54.80;;;;;;5247252;26;20098;-67
2024/04/21 11:08:28;;;;;;;5.93;3.53;;;19.20;54.70;;;;;;5231281;26;20018;-68
2024/04/21 11:10:53;;;;;;;7.47;3.58;;;19.30;54.60;;;;;;5271411;26;20101;-69
2024/04/21 11:13:19;;;;;;;6.20;3.38;;;19.30;54.60;;;;;;5245913;26;20069;-68
2024/04/21 11:15:44;;;;;;;7.75;3.85;;;19.30;54.50;;;;;;5245000;26;20007;-68
2024/04/21 11:18:11;;;;;;;3.92;3.03;;;19.40;54.50;;;;;;5267141;26;20005;-67
2024/04/21 11:20:37;;;;;;;4.63;2.60;;;19.40;54.40;;;;;;5257269;26;20573;-69
2024/04/21 11:23:03;;;;;;;6.38;3.40;;;19.40;54.30;;;;;;5248583;26;20019;-68
2024/04/21 11:25:29;;;;;;;5.53;3.45;;;19.50;54.30;;;;;;5254233;26;20003;-69
2024/04/21 11:27:55;;;;;;;3.53;2.65;;;19.50;54.20;;;;;;5246489;26;20021;-69
2024/04/21 11:30:23;;;;;;;6.90;3.58;;;19.50;54.20;;;;;;5257677;26;20021;-69
2024/04/21 11:32:49;;;;;;;4.03;2.97;;;19.50;54.10;;;;;;5245636;26;20024;-70
2024/04/21 11:35:16;;;;;;;3.35;2.85;;;19.60;54.10;;;;;;5257101;26;19998;-69
2024/04/21 11:37:42;;;;;;;4.25;2.63;;;19.60;54.00;;;;;;5238268;26;20039;-66
2024/04/21 11:40:08;;;;;;;5.45;2.88;;;19.60;53.90;;;;;;5257816;26;20013;-69
2024/04/21 11:42:34;;;;;;;5.45;2.95;;;19.70;53.90;;;;;;5248173;26;20065;-68
2024/04/21 11:44:59;;;;;;;3.92;2.40;;;19.70;53.80;;;;;;5245999;26;20444;-68
2024/04/21 11:47:25;;;;;;;4.70;2.50;;;19.70;53.80;;;;;;5238530;26;20069;-68
2024/04/21 11:49:50;;;;;;;3.85;2.63;;;19.80;53.80;;;;;;5245041;26;20037;-69
2024/04/21 11:52:16;;;;;;;3.90;2.45;;;19.70;53.70;;;;;;5233421;26;20442;-71
2024/04/21 11:54:41;;;;;;;3.42;2.95;;;19.80;53.80;;;;;;5260931;26;19998;-71
2024/04/21 11:57:07;;;;;;;4.25;2.70;;;19.70;53.70;;;;;;5258024;26;20002;-68
2024/04/21 11:59:32;;;;;;;5.18;2.92;;;19.80;53.70;;;;;;5277637;26;20752;-71
2024/04/21 12:01:58;;;;;;;5.38;3.08;;;19.80;53.70;;;;;;5254736;26;20002;-67
2024/04/21 12:04:23;;;;;;;5.35;3.42;;;19.70;53.70;;;;;;5262967;26;20527;-68
2024/04/21 12:06:49;;;;;;;4.20;2.80;;;19.80;53.70;;;;;;5253551;26;20014;-67
2024/04/21 12:09:14;;;;;;;5.13;3.28;;;19.80;54.30;;;;;;5249733;26;20055;-67
2024/04/21 12:11:40;;;;;;;9.38;4.05;;;19.80;53.70;;;;;;5251751;26;20021;-67
2024/04/21 12:14:27;;;;;;;5.18;3.80;;;19.80;53.70;;;;;;5245042;26;20025;-67
2024/04/21 12:16:54;;;;;;;7.60;3.78;;;19.80;53.80;;;;;;5240804;26;20133;-67
2024/04/21 12:19:19;;;;;;;5.05;3.13;;;19.80;53.90;;;;;;5246467;26;20073;-68
2024/04/21 12:21:45;;;;;;;7.30;4.10;;;19.80;53.90;;;;;;5249042;26;20393;-67
2024/04/21 12:24:10;;;;;;;7.18;3.55;;;19.80;53.90;;;;;;5234095;26;20676;-67
2024/04/21 12:26:36;;;;;;;7.13;3.67;;;19.80;54.00;;;;;;5249814;27;20050;-67
2024/04/21 12:29:01;;;;;;;7.50;3.60;;;19.70;54.00;;;;;;5247745;26;20568;-68
2024/04/21 12:31:27;;;;;;;6.90;3.40;;;19.70;54.10;;;;;;5246297;26;20011;-67
2024/04/21 12:33:53;;;;;;;7.22;3.35;;;19.70;54.10;;;;;;5256713;26;20591;-67
2024/04/21 12:36:18;;;;;;;4.60;3.58;;;19.70;54.20;;;;;;5250462;26;20356;-71
2024/04/21 12:38:44;;;;;;;6.32;3.60;;;19.70;54.20;;;;;;5249608;26;20029;-68